KSUS

Spirit of St Louis Airport

St Louis, Missouri, USA
METAR KSUS 250454Z AUTO 00000KT 10SM CLR 21/19 A3001 RMK AO2 SLP155 T02060194
Observed Flight Rules
May-25 @ 04:54 UTC (35 minutes ago) Visual Flight Rules
Visibility Clouds
10 miles
  • Clear skies
Temperatures Readings
Current 21°C / 70°F
Dewpoint 19°C / 66°F
Humidity 88%
Altimeter 30.01" Hg
Pressure 1015.5 hPa
Elevation 141
METAR KSUS 250454Z AUTO 00000KT 10SM CLR 21/19 A3001 RMK AO2 SLP155 T02060194
Observed Flight Rules
May-25 @ 04:54 UTC
(35 minutes ago)
VFR
Clouds
  • Clear skies
Temperature Dewpoint
21°C / 70°F 19°C / 66°F
Humidity Altimeter Pressure
88% 30.01" Hg 1015.5 hPa